sensor_id;sensor_type;location;lat;lon;timestamp;P1;durP1;ratioP1;P2;durP2;ratioP2
50231;SDS011;36118;56.468;84.952;2022-12-11T00:04:41;34.20;;;10.70;;
50231;SDS011;36118;56.468;84.952;2022-12-11T00:09:43;24.25;;;7.63;;
50231;SDS011;36118;56.468;84.952;2022-12-11T00:14:46;37.65;;;11.45;;
50231;SDS011;36118;56.468;84.952;2022-12-11T00:19:49;27.50;;;7.90;;
50231;SDS011;36118;56.468;84.952;2022-12-11T00:24:51;13.75;;;4.20;;
50231;SDS011;36118;56.468;84.952;2022-12-11T00:29:54;21.38;;;7.13;;
50231;SDS011;36118;56.468;84.952;2022-12-11T00:34:57;15.38;;;5.20;;
50231;SDS011;36118;56.468;84.952;2022-12-11T00:40:00;13.88;;;4.82;;
50231;SDS011;36118;56.468;84.952;2022-12-11T00:45:03;21.50;;;6.57;;
50231;SDS011;36118;56.468;84.952;2022-12-11T00:55:09;19.65;;;4.72;;
50231;SDS011;36118;56.468;84.952;2022-12-11T01:00:13;16.88;;;4.28;;
50231;SDS011;36118;56.468;84.952;2022-12-11T01:05:16;15.80;;;3.65;;
50231;SDS011;36118;56.468;84.952;2022-12-11T01:10:19;18.92;;;4.93;;
50231;SDS011;36118;56.468;84.952;2022-12-11T01:15:26;1.85;;;0.75;;
50231;SDS011;36118;56.468;84.952;2022-12-11T01:20:31;11.70;;;3.33;;
50231;SDS011;36118;56.468;84.952;2022-12-11T01:25:34;20.52;;;5.70;;
50231;SDS011;36118;56.468;84.952;2022-12-11T01:30:40;17.40;;;3.83;;
50231;SDS011;36118;56.468;84.952;2022-12-11T01:35:44;5.03;;;2.08;;
50231;SDS011;36118;56.468;84.952;2022-12-11T01:40:47;13.25;;;4.10;;
50231;SDS011;36118;56.468;84.952;2022-12-11T01:45:52;5.93;;;1.63;;
50231;SDS011;36118;56.468;84.952;2022-12-11T01:50:56;15.95;;;4.35;;
50231;SDS011;36118;56.468;84.952;2022-12-11T01:56:00;20.73;;;4.93;;
50231;SDS011;36118;56.468;84.952;2022-12-11T02:01:05;22.90;;;4.93;;
50231;SDS011;36118;56.468;84.952;2022-12-11T02:06:26;21.80;;;4.63;;
50231;SDS011;36118;56.468;84.952;2022-12-11T02:11:38;19.63;;;4.70;;
50231;SDS011;36118;56.468;84.952;2022-12-11T02:16:55;11.57;;;3.25;;
50231;SDS011;36118;56.468;84.952;2022-12-11T02:22:08;17.58;;;4.32;;
50231;SDS011;36118;56.468;84.952;2022-12-11T02:37:41;25.27;;;5.78;;
50231;SDS011;36118;56.468;84.952;2022-12-11T02:42:46;24.27;;;6.13;;
50231;SDS011;36118;56.468;84.952;2022-12-11T02:47:49;20.83;;;5.05;;
50231;SDS011;36118;56.468;84.952;2022-12-11T02:52:53;25.17;;;4.53;;
50231;SDS011;36118;56.468;84.952;2022-12-11T03:03:23;19.00;;;4.38;;
50231;SDS011;36118;56.468;84.952;2022-12-11T03:08:26;13.98;;;3.72;;
50231;SDS011;36118;56.468;84.952;2022-12-11T03:13:29;19.05;;;4.93;;
50231;SDS011;36118;56.468;84.952;2022-12-11T03:18:39;25.65;;;4.20;;
50231;SDS011;36118;56.468;84.952;2022-12-11T03:29:02;17.52;;;3.97;;
50231;SDS011;36118;56.468;84.952;2022-12-11T03:34:26;16.60;;;3.42;;
50231;SDS011;36118;56.468;84.952;2022-12-11T03:39:34;12.90;;;3.30;;
50231;SDS011;36118;56.468;84.952;2022-12-11T03:44:39;16.15;;;4.70;;
50231;SDS011;36118;56.468;84.952;2022-12-11T03:49:44;29.67;;;6.05;;
50231;SDS011;36118;56.468;84.952;2022-12-11T03:54:48;31.45;;;7.68;;
50231;SDS011;36118;56.468;84.952;2022-12-11T03:59:51;22.02;;;6.30;;
50231;SDS011;36118;56.468;84.952;2022-12-11T04:04:54;22.90;;;6.93;;
50231;SDS011;36118;56.468;84.952;2022-12-11T04:20:06;21.98;;;7.13;;
50231;SDS011;36118;56.468;84.952;2022-12-11T04:25:28;18.60;;;5.43;;
50231;SDS011;36118;56.468;84.952;2022-12-11T04:30:30;24.92;;;7.40;;
50231;SDS011;36118;56.468;84.952;2022-12-11T04:35:35;25.88;;;6.82;;
50231;SDS011;36118;56.468;84.952;2022-12-11T04:40:38;41.78;;;11.65;;
50231;SDS011;36118;56.468;84.952;2022-12-11T04:45:40;21.17;;;7.10;;
50231;SDS011;36118;56.468;84.952;2022-12-11T04:50:43;30.48;;;6.68;;
50231;SDS011;36118;56.468;84.952;2022-12-11T05:00:48;33.70;;;7.82;;
50231;SDS011;36118;56.468;84.952;2022-12-11T05:10:58;37.50;;;11.45;;
50231;SDS011;36118;56.468;84.952;2022-12-11T05:16:02;33.30;;;9.85;;
50231;SDS011;36118;56.468;84.952;2022-12-11T05:21:07;11.45;;;4.13;;
50231;SDS011;36118;56.468;84.952;2022-12-11T05:26:14;26.20;;;6.63;;
50231;SDS011;36118;56.468;84.952;2022-12-11T05:31:23;13.85;;;4.03;;
50231;SDS011;36118;56.468;84.952;2022-12-11T05:36:28;8.73;;;2.13;;
50231;SDS011;36118;56.468;84.952;2022-12-11T05:41:32;14.02;;;3.92;;
50231;SDS011;36118;56.468;84.952;2022-12-11T05:51:37;18.08;;;4.10;;
50231;SDS011;36118;56.468;84.952;2022-12-11T05:56:41;15.65;;;3.65;;
50231;SDS011;36118;56.468;84.952;2022-12-11T06:01:44;13.15;;;3.17;;
50231;SDS011;36118;56.468;84.952;2022-12-11T06:06:47;5.95;;;1.90;;
50231;SDS011;36118;56.468;84.952;2022-12-11T06:11:50;18.58;;;5.82;;
50231;SDS011;36118;56.468;84.952;2022-12-11T06:16:52;9.75;;;2.70;;
50231;SDS011;36118;56.468;84.952;2022-12-11T06:21:55;12.55;;;4.40;;
50231;SDS011;36118;56.468;84.952;2022-12-11T06:26:58;24.95;;;6.63;;
50231;SDS011;36118;56.468;84.952;2022-12-11T06:32:00;29.95;;;7.95;;
50231;SDS011;36118;56.468;84.952;2022-12-11T06:37:03;34.28;;;9.93;;
50231;SDS011;36118;56.468;84.952;2022-12-11T06:42:06;20.10;;;5.68;;
50231;SDS011;36118;56.468;84.952;2022-12-11T06:47:09;5.88;;;1.65;;
50231;SDS011;36118;56.468;84.952;2022-12-11T06:57:19;10.48;;;3.20;;
50231;SDS011;36118;56.468;84.952;2022-12-11T07:07:24;21.92;;;3.90;;
50231;SDS011;36118;56.468;84.952;2022-12-11T07:12:27;17.65;;;4.57;;
50231;SDS011;36118;56.468;84.952;2022-12-11T07:17:30;18.25;;;5.22;;
50231;SDS011;36118;56.468;84.952;2022-12-11T07:22:33;15.05;;;4.20;;
50231;SDS011;36118;56.468;84.952;2022-12-11T07:27:36;17.05;;;4.80;;
50231;SDS011;36118;56.468;84.952;2022-12-11T07:47:47;17.40;;;4.53;;
50231;SDS011;36118;56.468;84.952;2022-12-11T07:57:53;16.00;;;3.20;;
50231;SDS011;36118;56.468;84.952;2022-12-11T08:02:55;19.08;;;4.47;;
50231;SDS011;36118;56.468;84.952;2022-12-11T08:07:58;10.25;;;1.92;;
50231;SDS011;36118;56.468;84.952;2022-12-11T08:23:06;4.10;;;1.77;;
50231;SDS011;36118;56.468;84.952;2022-12-11T08:28:09;12.43;;;4.05;;
50231;SDS011;36118;56.468;84.952;2022-12-11T08:38:14;17.23;;;3.90;;
50231;SDS011;36118;56.468;84.952;2022-12-11T08:43:24;8.52;;;2.63;;
50231;SDS011;36118;56.468;84.952;2022-12-11T08:48:27;18.35;;;5.45;;
50231;SDS011;36118;56.468;84.952;2022-12-11T08:53:30;3.30;;;1.27;;
50231;SDS011;36118;56.468;84.952;2022-12-11T08:58:33;23.63;;;8.27;;
50231;SDS011;36118;56.468;84.952;2022-12-11T09:03:37;17.70;;;4.25;;
50231;SDS011;36118;56.468;84.952;2022-12-11T09:08:41;22.00;;;5.80;;
50231;SDS011;36118;56.468;84.952;2022-12-11T09:13:52;12.07;;;4.33;;
50231;SDS011;36118;56.468;84.952;2022-12-11T09:18:56;15.43;;;4.50;;
50231;SDS011;36118;56.468;84.952;2022-12-11T09:24:00;12.88;;;3.35;;
50231;SDS011;36118;56.468;84.952;2022-12-11T09:29:03;17.23;;;3.13;;
50231;SDS011;36118;56.468;84.952;2022-12-11T09:34:07;14.85;;;4.10;;
50231;SDS011;36118;56.468;84.952;2022-12-11T09:39:13;16.60;;;3.90;;
50231;SDS011;36118;56.468;84.952;2022-12-11T09:49:39;15.68;;;4.55;;
50231;SDS011;36118;56.468;84.952;2022-12-11T09:54:47;9.93;;;3.42;;
50231;SDS011;36118;56.468;84.952;2022-12-11T10:20:59;10.25;;;3.13;;
50231;SDS011;36118;56.468;84.952;2022-12-11T10:26:05;12.88;;;4.35;;
50231;SDS011;36118;56.468;84.952;2022-12-11T10:31:19;15.55;;;5.22;;
50231;SDS011;36118;56.468;84.952;2022-12-11T10:36:40;8.37;;;3.10;;
50231;SDS011;36118;56.468;84.952;2022-12-11T10:41:45;10.02;;;3.75;;
50231;SDS011;36118;56.468;84.952;2022-12-11T10:52:19;13.30;;;4.18;;
50231;SDS011;36118;56.468;84.952;2022-12-11T10:57:28;21.63;;;4.13;;
50231;SDS011;36118;56.468;84.952;2022-12-11T11:02:36;20.65;;;4.88;;
50231;SDS011;36118;56.468;84.952;2022-12-11T11:07:40;12.00;;;4.15;;
50231;SDS011;36118;56.468;84.952;2022-12-11T11:12:44;18.38;;;4.78;;
50231;SDS011;36118;56.468;84.952;2022-12-11T11:17:52;21.38;;;4.75;;
50231;SDS011;36118;56.468;84.952;2022-12-11T11:23:02;31.08;;;7.95;;
50231;SDS011;36118;56.468;84.952;2022-12-11T11:28:16;28.63;;;6.00;;
50231;SDS011;36118;56.468;84.952;2022-12-11T11:33:22;30.80;;;8.85;;
50231;SDS011;36118;56.468;84.952;2022-12-11T11:43:51;19.38;;;7.90;;
50231;SDS011;36118;56.468;84.952;2022-12-11T11:54:36;55.85;;;19.02;;
50231;SDS011;36118;56.468;84.952;2022-12-11T11:59:44;45.38;;;14.23;;
50231;SDS011;36118;56.468;84.952;2022-12-11T12:04:48;39.45;;;15.95;;
50231;SDS011;36118;56.468;84.952;2022-12-11T12:25:39;48.50;;;14.77;;
50231;SDS011;36118;56.468;84.952;2022-12-11T12:46:58;112.68;;;38.92;;
50231;SDS011;36118;56.468;84.952;2022-12-11T12:52:04;126.55;;;48.55;;
50231;SDS011;36118;56.468;84.952;2022-12-11T12:57:08;157.75;;;55.75;;
50231;SDS011;36118;56.468;84.952;2022-12-11T13:02:12;165.32;;;46.72;;
50231;SDS011;36118;56.468;84.952;2022-12-11T13:07:17;140.18;;;39.20;;
50231;SDS011;36118;56.468;84.952;2022-12-11T13:12:29;110.55;;;35.05;;
50231;SDS011;36118;56.468;84.952;2022-12-11T13:17:52;110.60;;;34.65;;
50231;SDS011;36118;56.468;84.952;2022-12-11T13:23:18;105.53;;;30.92;;
50231;SDS011;36118;56.468;84.952;2022-12-11T13:33:46;104.38;;;35.13;;
50231;SDS011;36118;56.468;84.952;2022-12-11T13:38:54;79.90;;;29.30;;
50231;SDS011;36118;56.468;84.952;2022-12-11T13:44:00;96.53;;;32.80;;
50231;SDS011;36118;56.468;84.952;2022-12-11T13:49:06;118.07;;;36.50;;
50231;SDS011;36118;56.468;84.952;2022-12-11T13:54:18;85.72;;;32.20;;
50231;SDS011;36118;56.468;84.952;2022-12-11T13:59:25;111.50;;;37.10;;
50231;SDS011;36118;56.468;84.952;2022-12-11T14:04:33;103.47;;;34.15;;
50231;SDS011;36118;56.468;84.952;2022-12-11T14:09:38;89.15;;;29.75;;
50231;SDS011;36118;56.468;84.952;2022-12-11T14:14:49;97.45;;;32.95;;
50231;SDS011;36118;56.468;84.952;2022-12-11T14:19:55;104.13;;;32.85;;
50231;SDS011;36118;56.468;84.952;2022-12-11T14:25:00;89.95;;;27.98;;
50231;SDS011;36118;56.468;84.952;2022-12-11T14:30:18;80.90;;;28.80;;
50231;SDS011;36118;56.468;84.952;2022-12-11T14:35:24;92.07;;;29.65;;
50231;SDS011;36118;56.468;84.952;2022-12-11T14:40:40;105.45;;;36.45;;
50231;SDS011;36118;56.468;84.952;2022-12-11T14:45:45;71.18;;;23.05;;
50231;SDS011;36118;56.468;84.952;2022-12-11T14:50:52;44.58;;;15.48;;
50231;SDS011;36118;56.468;84.952;2022-12-11T14:55:56;60.20;;;17.08;;
50231;SDS011;36118;56.468;84.952;2022-12-11T15:01:06;57.47;;;18.80;;
50231;SDS011;36118;56.468;84.952;2022-12-11T15:06:24;70.57;;;21.90;;
50231;SDS011;36118;56.468;84.952;2022-12-11T15:11:30;66.05;;;23.33;;
50231;SDS011;36118;56.468;84.952;2022-12-11T15:16:35;110.65;;;33.33;;
50231;SDS011;36118;56.468;84.952;2022-12-11T15:21:40;104.00;;;39.00;;
50231;SDS011;36118;56.468;84.952;2022-12-11T15:26:43;73.50;;;24.13;;
50231;SDS011;36118;56.468;84.952;2022-12-11T15:31:47;80.85;;;30.88;;
50231;SDS011;36118;56.468;84.952;2022-12-11T15:37:24;123.15;;;40.22;;
50231;SDS011;36118;56.468;84.952;2022-12-11T15:42:30;73.25;;;22.40;;
50231;SDS011;36118;56.468;84.952;2022-12-11T15:47:35;32.17;;;11.05;;
50231;SDS011;36118;56.468;84.952;2022-12-11T15:52:38;21.70;;;5.82;;
50231;SDS011;36118;56.468;84.952;2022-12-11T15:57:42;60.47;;;18.05;;
50231;SDS011;36118;56.468;84.952;2022-12-11T16:02:47;41.92;;;12.57;;
50231;SDS011;36118;56.468;84.952;2022-12-11T16:07:50;43.13;;;14.07;;
50231;SDS011;36118;56.468;84.952;2022-12-11T16:12:57;54.35;;;17.35;;
50231;SDS011;36118;56.468;84.952;2022-12-11T16:18:05;11.77;;;4.28;;
50231;SDS011;36118;56.468;84.952;2022-12-11T16:23:13;34.20;;;7.70;;
50231;SDS011;36118;56.468;84.952;2022-12-11T16:28:18;25.83;;;9.35;;
50231;SDS011;36118;56.468;84.952;2022-12-11T16:33:24;21.63;;;6.80;;
50231;SDS011;36118;56.468;84.952;2022-12-11T16:38:27;17.63;;;6.20;;
50231;SDS011;36118;56.468;84.952;2022-12-11T16:43:31;13.82;;;4.43;;
50231;SDS011;36118;56.468;84.952;2022-12-11T16:48:33;24.80;;;6.53;;
50231;SDS011;36118;56.468;84.952;2022-12-11T16:53:36;38.83;;;12.35;;
50231;SDS011;36118;56.468;84.952;2022-12-11T16:58:39;39.45;;;11.23;;
50231;SDS011;36118;56.468;84.952;2022-12-11T17:03:42;30.98;;;8.65;;
50231;SDS011;36118;56.468;84.952;2022-12-11T17:08:45;28.33;;;8.63;;
50231;SDS011;36118;56.468;84.952;2022-12-11T17:13:55;40.17;;;13.07;;
50231;SDS011;36118;56.468;84.952;2022-12-11T17:18:58;42.22;;;13.85;;
50231;SDS011;36118;56.468;84.952;2022-12-11T17:24:01;23.40;;;6.38;;
50231;SDS011;36118;56.468;84.952;2022-12-11T17:29:04;10.93;;;4.28;;
50231;SDS011;36118;56.468;84.952;2022-12-11T17:34:07;17.77;;;5.85;;
50231;SDS011;36118;56.468;84.952;2022-12-11T17:39:09;27.83;;;7.45;;
50231;SDS011;36118;56.468;84.952;2022-12-11T17:44:12;30.00;;;6.85;;
50231;SDS011;36118;56.468;84.952;2022-12-11T17:49:15;14.13;;;3.70;;
50231;SDS011;36118;56.468;84.952;2022-12-11T17:54:18;15.20;;;4.70;;
50231;SDS011;36118;56.468;84.952;2022-12-11T17:59:21;28.13;;;6.80;;
50231;SDS011;36118;56.468;84.952;2022-12-11T18:04:24;27.95;;;6.85;;
50231;SDS011;36118;56.468;84.952;2022-12-11T18:09:27;18.98;;;5.97;;
50231;SDS011;36118;56.468;84.952;2022-12-11T18:14:29;16.20;;;4.00;;
50231;SDS011;36118;56.468;84.952;2022-12-11T18:19:32;16.95;;;5.30;;
50231;SDS011;36118;56.468;84.952;2022-12-11T18:24:35;22.05;;;7.85;;
50231;SDS011;36118;56.468;84.952;2022-12-11T18:29:38;23.63;;;6.43;;
50231;SDS011;36118;56.468;84.952;2022-12-11T18:34:41;8.20;;;3.05;;
50231;SDS011;36118;56.468;84.952;2022-12-11T18:39:43;12.35;;;2.72;;
50231;SDS011;36118;56.468;84.952;2022-12-11T18:44:46;14.38;;;4.07;;
50231;SDS011;36118;56.468;84.952;2022-12-11T18:49:49;12.60;;;3.42;;
50231;SDS011;36118;56.468;84.952;2022-12-11T18:54:52;14.30;;;3.70;;
50231;SDS011;36118;56.468;84.952;2022-12-11T18:59:54;19.20;;;5.72;;
50231;SDS011;36118;56.468;84.952;2022-12-11T19:04:58;8.98;;;3.15;;
50231;SDS011;36118;56.468;84.952;2022-12-11T19:10:01;1.95;;;0.85;;
50231;SDS011;36118;56.468;84.952;2022-12-11T19:15:04;2.88;;;1.48;;
50231;SDS011;36118;56.468;84.952;2022-12-11T19:20:07;24.88;;;4.53;;
50231;SDS011;36118;56.468;84.952;2022-12-11T19:25:31;14.65;;;4.72;;
50231;SDS011;36118;56.468;84.952;2022-12-11T19:30:34;22.05;;;4.43;;
50231;SDS011;36118;56.468;84.952;2022-12-11T19:35:37;11.00;;;2.47;;
50231;SDS011;36118;56.468;84.952;2022-12-11T19:40:40;21.77;;;4.90;;
50231;SDS011;36118;56.468;84.952;2022-12-11T19:45:43;19.02;;;6.13;;
50231;SDS011;36118;56.468;84.952;2022-12-11T19:50:47;3.60;;;1.85;;
50231;SDS011;36118;56.468;84.952;2022-12-11T19:55:50;24.83;;;5.78;;
50231;SDS011;36118;56.468;84.952;2022-12-11T20:00:53;16.27;;;4.53;;
50231;SDS011;36118;56.468;84.952;2022-12-11T20:06:00;8.63;;;2.45;;
50231;SDS011;36118;56.468;84.952;2022-12-11T20:11:07;18.20;;;5.07;;
50231;SDS011;36118;56.468;84.952;2022-12-11T20:16:18;15.85;;;4.45;;
50231;SDS011;36118;56.468;84.952;2022-12-11T20:21:41;17.45;;;3.85;;
50231;SDS011;36118;56.468;84.952;2022-12-11T20:26:44;30.05;;;7.45;;
50231;SDS011;36118;56.468;84.952;2022-12-11T20:31:48;14.45;;;4.03;;
50231;SDS011;36118;56.468;84.952;2022-12-11T20:36:52;21.77;;;5.88;;
50231;SDS011;36118;56.468;84.952;2022-12-11T20:41:55;16.80;;;5.30;;
50231;SDS011;36118;56.468;84.952;2022-12-11T20:46:58;24.23;;;5.93;;
50231;SDS011;36118;56.468;84.952;2022-12-11T20:52:00;9.60;;;2.88;;
50231;SDS011;36118;56.468;84.952;2022-12-11T20:57:03;10.23;;;1.65;;
50231;SDS011;36118;56.468;84.952;2022-12-11T21:02:06;26.75;;;6.38;;
50231;SDS011;36118;56.468;84.952;2022-12-11T21:07:12;29.67;;;9.48;;
50231;SDS011;36118;56.468;84.952;2022-12-11T21:12:15;16.70;;;3.35;;
50231;SDS011;36118;56.468;84.952;2022-12-11T21:17:17;5.18;;;2.13;;
50231;SDS011;36118;56.468;84.952;2022-12-11T21:22:20;17.98;;;5.25;;
50231;SDS011;36118;56.468;84.952;2022-12-11T21:27:23;28.05;;;7.10;;
50231;SDS011;36118;56.468;84.952;2022-12-11T21:32:25;22.63;;;5.97;;
50231;SDS011;36118;56.468;84.952;2022-12-11T21:37:28;1.48;;;0.98;;
50231;SDS011;36118;56.468;84.952;2022-12-11T21:42:31;15.88;;;5.00;;
50231;SDS011;36118;56.468;84.952;2022-12-11T21:47:34;19.38;;;4.40;;
50231;SDS011;36118;56.468;84.952;2022-12-11T21:52:37;6.53;;;2.92;;
50231;SDS011;36118;56.468;84.952;2022-12-11T21:57:40;13.18;;;4.25;;
50231;SDS011;36118;56.468;84.952;2022-12-11T22:02:42;20.05;;;4.85;;
50231;SDS011;36118;56.468;84.952;2022-12-11T22:07:45;24.40;;;7.72;;
50231;SDS011;36118;56.468;84.952;2022-12-11T22:12:48;21.83;;;7.38;;
50231;SDS011;36118;56.468;84.952;2022-12-11T22:17:51;4.05;;;1.58;;
50231;SDS011;36118;56.468;84.952;2022-12-11T22:22:53;14.00;;;4.07;;
50231;SDS011;36118;56.468;84.952;2022-12-11T22:27:56;15.50;;;4.15;;
50231;SDS011;36118;56.468;84.952;2022-12-11T22:32:59;19.67;;;4.95;;
50231;SDS011;36118;56.468;84.952;2022-12-11T22:38:02;19.92;;;5.03;;
50231;SDS011;36118;56.468;84.952;2022-12-11T22:43:05;19.73;;;6.13;;
50231;SDS011;36118;56.468;84.952;2022-12-11T22:48:08;26.83;;;8.60;;
50231;SDS011;36118;56.468;84.952;2022-12-11T22:53:11;11.40;;;3.67;;
50231;SDS011;36118;56.468;84.952;2022-12-11T22:58:13;26.25;;;7.05;;
50231;SDS011;36118;56.468;84.952;2022-12-11T23:03:22;23.42;;;6.75;;
50231;SDS011;36118;56.468;84.952;2022-12-11T23:08:25;21.98;;;5.88;;
50231;SDS011;36118;56.468;84.952;2022-12-11T23:13:28;15.73;;;4.90;;
50231;SDS011;36118;56.468;84.952;2022-12-11T23:18:30;13.85;;;5.13;;
50231;SDS011;36118;56.468;84.952;2022-12-11T23:23:34;23.52;;;7.32;;
50231;SDS011;36118;56.468;84.952;2022-12-11T23:28:37;14.70;;;3.45;;
50231;SDS011;36118;56.468;84.952;2022-12-11T23:33:41;27.35;;;7.22;;
50231;SDS011;36118;56.468;84.952;2022-12-11T23:38:43;9.32;;;3.10;;
50231;SDS011;36118;56.468;84.952;2022-12-11T23:43:55;26.70;;;6.63;;
50231;SDS011;36118;56.468;84.952;2022-12-11T23:48:57;9.80;;;2.30;;
50231;SDS011;36118;56.468;84.952;2022-12-11T23:54:00;8.65;;;1.90;;
50231;SDS011;36118;56.468;84.952;2022-12-11T23:59:03;12.82;;;4.15;;
